sensor_id;sensor_type;location;lat;lon;timestamp;P1;durP1;ratioP1;P2;durP2;ratioP2
17814;SDS011;9031;50.974;11.330;2024-03-25T00:01:59;1.37;;;1.23;;
17814;SDS011;9031;50.974;11.330;2024-03-25T00:04:24;1.20;;;1.10;;
17814;SDS011;9031;50.974;11.330;2024-03-25T00:06:49;1.43;;;1.33;;
17814;SDS011;9031;50.974;11.330;2024-03-25T00:09:16;1.37;;;1.27;;
17814;SDS011;9031;50.974;11.330;2024-03-25T00:11:42;1.20;;;1.10;;
17814;SDS011;9031;50.974;11.330;2024-03-25T00:14:08;1.70;;;1.20;;
17814;SDS011;9031;50.974;11.330;2024-03-25T00:16:34;1.03;;;1.00;;
17814;SDS011;9031;50.974;11.330;2024-03-25T00:18:59;1.23;;;1.13;;
17814;SDS011;9031;50.974;11.330;2024-03-25T00:21:25;1.97;;;1.70;;
17814;SDS011;9031;50.974;11.330;2024-03-25T00:23:51;1.43;;;1.33;;
17814;SDS011;9031;50.974;11.330;2024-03-25T00:26:16;1.93;;;1.47;;
17814;SDS011;9031;50.974;11.330;2024-03-25T00:28:42;1.70;;;1.20;;
17814;SDS011;9031;50.974;11.330;2024-03-25T00:31:08;4.50;;;1.20;;
17814;SDS011;9031;50.974;11.330;2024-03-25T00:33:34;1.20;;;1.10;;
17814;SDS011;9031;50.974;11.330;2024-03-25T00:35:59;1.17;;;1.07;;
17814;SDS011;9031;50.974;11.330;2024-03-25T00:38:25;2.03;;;1.30;;
17814;SDS011;9031;50.974;11.330;2024-03-25T00:40:50;2.17;;;1.23;;
17814;SDS011;9031;50.974;11.330;2024-03-25T00:43:16;1.57;;;1.17;;
17814;SDS011;9031;50.974;11.330;2024-03-25T00:45:42;1.40;;;1.30;;
17814;SDS011;9031;50.974;11.330;2024-03-25T00:48:08;1.90;;;1.13;;
17814;SDS011;9031;50.974;11.330;2024-03-25T00:50:33;3.03;;;1.37;;
17814;SDS011;9031;50.974;11.330;2024-03-25T00:52:58;1.90;;;1.23;;
17814;SDS011;9031;50.974;11.330;2024-03-25T00:55:24;1.50;;;1.03;;
17814;SDS011;9031;50.974;11.330;2024-03-25T00:57:50;2.43;;;1.30;;
17814;SDS011;9031;50.974;11.330;2024-03-25T01:00:15;6.30;;;1.53;;
17814;SDS011;9031;50.974;11.330;2024-03-25T01:02:42;3.00;;;1.80;;
17814;SDS011;9031;50.974;11.330;2024-03-25T01:05:08;4.77;;;1.53;;
17814;SDS011;9031;50.974;11.330;2024-03-25T01:07:34;3.13;;;1.50;;
17814;SDS011;9031;50.974;11.330;2024-03-25T01:09:59;1.47;;;1.30;;
17814;SDS011;9031;50.974;11.330;2024-03-25T01:12:25;1.77;;;1.60;;
17814;SDS011;9031;50.974;11.330;2024-03-25T01:14:51;1.73;;;1.40;;
17814;SDS011;9031;50.974;11.330;2024-03-25T01:17:17;1.83;;;1.20;;
17814;SDS011;9031;50.974;11.330;2024-03-25T01:19:42;2.30;;;1.40;;
17814;SDS011;9031;50.974;11.330;2024-03-25T01:22:08;2.80;;;1.60;;
17814;SDS011;9031;50.974;11.330;2024-03-25T01:24:34;3.70;;;1.53;;
17814;SDS011;9031;50.974;11.330;2024-03-25T01:26:59;2.00;;;1.60;;
17814;SDS011;9031;50.974;11.330;2024-03-25T01:29:25;2.03;;;1.37;;
17814;SDS011;9031;50.974;11.330;2024-03-25T01:31:50;2.53;;;1.57;;
17814;SDS011;9031;50.974;11.330;2024-03-25T01:34:16;2.17;;;1.30;;
17814;SDS011;9031;50.974;11.330;2024-03-25T01:36:42;6.13;;;1.90;;
17814;SDS011;9031;50.974;11.330;2024-03-25T01:39:08;3.43;;;1.60;;
17814;SDS011;9031;50.974;11.330;2024-03-25T01:41:34;3.57;;;1.57;;
17814;SDS011;9031;50.974;11.330;2024-03-25T01:43:59;1.67;;;1.47;;
17814;SDS011;9031;50.974;11.330;2024-03-25T01:46:26;4.23;;;1.17;;
17814;SDS011;9031;50.974;11.330;2024-03-25T01:48:53;4.10;;;1.43;;
17814;SDS011;9031;50.974;11.330;2024-03-25T01:51:20;1.43;;;1.20;;
17814;SDS011;9031;50.974;11.330;2024-03-25T01:53:47;3.97;;;1.63;;
17814;SDS011;9031;50.974;11.330;2024-03-25T01:56:13;2.23;;;1.57;;
17814;SDS011;9031;50.974;11.330;2024-03-25T01:58:40;3.80;;;1.80;;
17814;SDS011;9031;50.974;11.330;2024-03-25T02:01:05;3.83;;;1.40;;
17814;SDS011;9031;50.974;11.330;2024-03-25T02:03:33;1.47;;;1.10;;
17814;SDS011;9031;50.974;11.330;2024-03-25T02:05:59;2.87;;;1.50;;
17814;SDS011;9031;50.974;11.330;2024-03-25T02:08:27;2.40;;;1.60;;
17814;SDS011;9031;50.974;11.330;2024-03-25T02:10:54;1.30;;;1.20;;
17814;SDS011;9031;50.974;11.330;2024-03-25T02:13:20;4.60;;;1.87;;
17814;SDS011;9031;50.974;11.330;2024-03-25T02:15:47;2.50;;;1.43;;
17814;SDS011;9031;50.974;11.330;2024-03-25T02:18:16;2.00;;;1.50;;
17814;SDS011;9031;50.974;11.330;2024-03-25T02:20:44;5.70;;;1.80;;
17814;SDS011;9031;50.974;11.330;2024-03-25T02:23:10;4.73;;;1.60;;
17814;SDS011;9031;50.974;11.330;2024-03-25T02:25:37;1.50;;;1.40;;
17814;SDS011;9031;50.974;11.330;2024-03-25T02:28:04;3.47;;;1.37;;
17814;SDS011;9031;50.974;11.330;2024-03-25T02:30:29;3.90;;;1.63;;
17814;SDS011;9031;50.974;11.330;2024-03-25T02:32:55;4.17;;;1.27;;
17814;SDS011;9031;50.974;11.330;2024-03-25T02:35:20;1.97;;;1.30;;
17814;SDS011;9031;50.974;11.330;2024-03-25T02:37:47;2.77;;;1.40;;
17814;SDS011;9031;50.974;11.330;2024-03-25T02:40:14;1.80;;;1.30;;
17814;SDS011;9031;50.974;11.330;2024-03-25T02:42:40;3.37;;;1.40;;
17814;SDS011;9031;50.974;11.330;2024-03-25T02:45:06;3.13;;;1.40;;
17814;SDS011;9031;50.974;11.330;2024-03-25T02:47:32;2.17;;;1.07;;
17814;SDS011;9031;50.974;11.330;2024-03-25T02:49:58;2.77;;;1.23;;
17814;SDS011;9031;50.974;11.330;2024-03-25T02:52:23;1.23;;;1.13;;
17814;SDS011;9031;50.974;11.330;2024-03-25T02:54:49;2.67;;;1.50;;
17814;SDS011;9031;50.974;11.330;2024-03-25T02:57:15;2.67;;;1.60;;
17814;SDS011;9031;50.974;11.330;2024-03-25T02:59:40;3.23;;;1.40;;
17814;SDS011;9031;50.974;11.330;2024-03-25T03:02:05;1.53;;;1.40;;
17814;SDS011;9031;50.974;11.330;2024-03-25T03:04:31;1.53;;;1.20;;
17814;SDS011;9031;50.974;11.330;2024-03-25T03:06:57;2.70;;;1.10;;
17814;SDS011;9031;50.974;11.330;2024-03-25T03:09:22;4.57;;;1.47;;
17814;SDS011;9031;50.974;11.330;2024-03-25T03:11:48;1.80;;;1.23;;
17814;SDS011;9031;50.974;11.330;2024-03-25T03:14:13;2.07;;;1.20;;
17814;SDS011;9031;50.974;11.330;2024-03-25T03:16:39;1.83;;;1.10;;
17814;SDS011;9031;50.974;11.330;2024-03-25T03:19:04;2.10;;;1.40;;
17814;SDS011;9031;50.974;11.330;2024-03-25T03:21:30;1.80;;;1.00;;
17814;SDS011;9031;50.974;11.330;2024-03-25T03:23:56;1.67;;;1.30;;
17814;SDS011;9031;50.974;11.330;2024-03-25T03:26:21;1.37;;;1.27;;
17814;SDS011;9031;50.974;11.330;2024-03-25T03:28:51;1.40;;;1.30;;
17814;SDS011;9031;50.974;11.330;2024-03-25T03:31:18;1.00;;;0.90;;
17814;SDS011;9031;50.974;11.330;2024-03-25T03:33:43;3.50;;;1.40;;
17814;SDS011;9031;50.974;11.330;2024-03-25T03:36:09;1.93;;;1.30;;
17814;SDS011;9031;50.974;11.330;2024-03-25T03:38:34;2.77;;;1.53;;
17814;SDS011;9031;50.974;11.330;2024-03-25T03:41:01;1.40;;;1.30;;
17814;SDS011;9031;50.974;11.330;2024-03-25T03:43:27;2.83;;;1.20;;
17814;SDS011;9031;50.974;11.330;2024-03-25T03:45:53;2.07;;;1.40;;
17814;SDS011;9031;50.974;11.330;2024-03-25T03:48:19;3.50;;;1.70;;
17814;SDS011;9031;50.974;11.330;2024-03-25T03:50:44;2.40;;;1.53;;
17814;SDS011;9031;50.974;11.330;2024-03-25T03:53:10;2.37;;;1.40;;
17814;SDS011;9031;50.974;11.330;2024-03-25T03:55:35;2.13;;;1.13;;
17814;SDS011;9031;50.974;11.330;2024-03-25T03:58:01;2.60;;;1.30;;
17814;SDS011;9031;50.974;11.330;2024-03-25T04:00:27;2.20;;;1.30;;
17814;SDS011;9031;50.974;11.330;2024-03-25T04:02:52;1.53;;;1.10;;
17814;SDS011;9031;50.974;11.330;2024-03-25T04:05:18;1.50;;;1.40;;
17814;SDS011;9031;50.974;11.330;2024-03-25T04:07:44;2.33;;;1.10;;
17814;SDS011;9031;50.974;11.330;2024-03-25T04:10:09;1.13;;;1.03;;
17814;SDS011;9031;50.974;11.330;2024-03-25T04:12:35;1.30;;;0.97;;
17814;SDS011;9031;50.974;11.330;2024-03-25T04:15:02;1.80;;;1.10;;
17814;SDS011;9031;50.974;11.330;2024-03-25T04:17:30;0.87;;;0.87;;
17814;SDS011;9031;50.974;11.330;2024-03-25T04:19:58;1.33;;;0.90;;
17814;SDS011;9031;50.974;11.330;2024-03-25T04:22:25;1.00;;;1.00;;
17814;SDS011;9031;50.974;11.330;2024-03-25T04:24:51;0.90;;;0.80;;
17814;SDS011;9031;50.974;11.330;2024-03-25T04:27:16;1.97;;;1.30;;
17814;SDS011;9031;50.974;11.330;2024-03-25T04:29:45;2.50;;;1.40;;
17814;SDS011;9031;50.974;11.330;2024-03-25T04:32:11;4.23;;;1.37;;
17814;SDS011;9031;50.974;11.330;2024-03-25T04:34:37;1.30;;;1.20;;
17814;SDS011;9031;50.974;11.330;2024-03-25T04:37:02;1.90;;;1.17;;
17814;SDS011;9031;50.974;11.330;2024-03-25T04:39:29;2.33;;;1.43;;
17814;SDS011;9031;50.974;11.330;2024-03-25T04:41:55;1.63;;;1.00;;
17814;SDS011;9031;50.974;11.330;2024-03-25T04:44:21;2.90;;;1.23;;
17814;SDS011;9031;50.974;11.330;2024-03-25T04:46:47;1.80;;;1.30;;
17814;SDS011;9031;50.974;11.330;2024-03-25T04:49:12;2.47;;;1.50;;
17814;SDS011;9031;50.974;11.330;2024-03-25T04:51:38;1.90;;;1.60;;
17814;SDS011;9031;50.974;11.330;2024-03-25T04:54:03;2.03;;;1.37;;
17814;SDS011;9031;50.974;11.330;2024-03-25T04:56:29;4.00;;;1.30;;
17814;SDS011;9031;50.974;11.330;2024-03-25T04:58:56;2.67;;;1.60;;
17814;SDS011;9031;50.974;11.330;2024-03-25T05:01:26;2.73;;;1.47;;
17814;SDS011;9031;50.974;11.330;2024-03-25T05:03:52;2.70;;;1.50;;
17814;SDS011;9031;50.974;11.330;2024-03-25T05:06:17;2.70;;;1.70;;
17814;SDS011;9031;50.974;11.330;2024-03-25T05:08:42;3.03;;;1.50;;
17814;SDS011;9031;50.974;11.330;2024-03-25T05:11:08;1.40;;;1.30;;
17814;SDS011;9031;50.974;11.330;2024-03-25T05:13:33;5.83;;;1.80;;
17814;SDS011;9031;50.974;11.330;2024-03-25T05:15:59;2.60;;;1.70;;
17814;SDS011;9031;50.974;11.330;2024-03-25T05:18:24;2.43;;;1.47;;
17814;SDS011;9031;50.974;11.330;2024-03-25T05:20:50;3.23;;;1.60;;
17814;SDS011;9031;50.974;11.330;2024-03-25T05:23:15;2.70;;;1.50;;
17814;SDS011;9031;50.974;11.330;2024-03-25T05:25:40;2.10;;;1.90;;
17814;SDS011;9031;50.974;11.330;2024-03-25T05:28:06;4.00;;;1.90;;
17814;SDS011;9031;50.974;11.330;2024-03-25T05:30:32;2.20;;;1.90;;
17814;SDS011;9031;50.974;11.330;2024-03-25T05:32:58;3.50;;;1.70;;
17814;SDS011;9031;50.974;11.330;2024-03-25T05:35:23;2.67;;;1.87;;
17814;SDS011;9031;50.974;11.330;2024-03-25T05:37:49;3.13;;;1.57;;
17814;SDS011;9031;50.974;11.330;2024-03-25T05:40:14;2.17;;;1.40;;
17814;SDS011;9031;50.974;11.330;2024-03-25T05:42:40;2.00;;;1.70;;
17814;SDS011;9031;50.974;11.330;2024-03-25T05:45:09;3.90;;;1.80;;
17814;SDS011;9031;50.974;11.330;2024-03-25T05:47:35;2.90;;;1.80;;
17814;SDS011;9031;50.974;11.330;2024-03-25T05:50:00;4.83;;;2.00;;
17814;SDS011;9031;50.974;11.330;2024-03-25T05:52:31;2.00;;;1.80;;
17814;SDS011;9031;50.974;11.330;2024-03-25T05:54:56;2.47;;;1.60;;
17814;SDS011;9031;50.974;11.330;2024-03-25T05:57:23;1.90;;;1.80;;
17814;SDS011;9031;50.974;11.330;2024-03-25T05:59:48;3.60;;;1.73;;
17814;SDS011;9031;50.974;11.330;2024-03-25T06:02:13;3.40;;;2.00;;
17814;SDS011;9031;50.974;11.330;2024-03-25T06:04:39;3.70;;;1.93;;
17814;SDS011;9031;50.974;11.330;2024-03-25T06:07:04;3.50;;;1.60;;
17814;SDS011;9031;50.974;11.330;2024-03-25T06:09:30;2.70;;;1.97;;
17814;SDS011;9031;50.974;11.330;2024-03-25T06:11:55;2.70;;;2.07;;
17814;SDS011;9031;50.974;11.330;2024-03-25T06:14:21;3.83;;;1.80;;
17814;SDS011;9031;50.974;11.330;2024-03-25T06:16:46;3.80;;;2.00;;
17814;SDS011;9031;50.974;11.330;2024-03-25T06:19:12;5.53;;;2.03;;
17814;SDS011;9031;50.974;11.330;2024-03-25T06:21:37;3.63;;;1.80;;
17814;SDS011;9031;50.974;11.330;2024-03-25T06:24:03;5.43;;;1.90;;
17814;SDS011;9031;50.974;11.330;2024-03-25T06:26:29;2.57;;;1.90;;
17814;SDS011;9031;50.974;11.330;2024-03-25T06:28:54;3.57;;;1.73;;
17814;SDS011;9031;50.974;11.330;2024-03-25T06:31:19;4.40;;;2.00;;
17814;SDS011;9031;50.974;11.330;2024-03-25T06:34:04;4.57;;;1.90;;
17814;SDS011;9031;50.974;11.330;2024-03-25T06:36:46;3.23;;;2.27;;
17814;SDS011;9031;50.974;11.330;2024-03-25T06:39:12;3.93;;;2.03;;
17814;SDS011;9031;50.974;11.330;2024-03-25T06:41:41;2.83;;;1.73;;
17814;SDS011;9031;50.974;11.330;2024-03-25T06:44:06;1.83;;;1.67;;
17814;SDS011;9031;50.974;11.330;2024-03-25T06:46:32;4.17;;;1.90;;
17814;SDS011;9031;50.974;11.330;2024-03-25T06:48:58;3.57;;;1.80;;
17814;SDS011;9031;50.974;11.330;2024-03-25T06:51:23;1.77;;;1.53;;
17814;SDS011;9031;50.974;11.330;2024-03-25T06:53:49;2.53;;;1.63;;
17814;SDS011;9031;50.974;11.330;2024-03-25T06:56:14;2.23;;;1.60;;
17814;SDS011;9031;50.974;11.330;2024-03-25T06:58:40;3.27;;;1.60;;
17814;SDS011;9031;50.974;11.330;2024-03-25T07:01:07;2.83;;;1.70;;
17814;SDS011;9031;50.974;11.330;2024-03-25T07:03:33;3.77;;;1.63;;
17814;SDS011;9031;50.974;11.330;2024-03-25T07:05:59;1.97;;;1.67;;
17814;SDS011;9031;50.974;11.330;2024-03-25T07:08:25;3.07;;;1.90;;
17814;SDS011;9031;50.974;11.330;2024-03-25T07:10:52;4.03;;;1.80;;
17814;SDS011;9031;50.974;11.330;2024-03-25T07:13:18;3.17;;;1.80;;
17814;SDS011;9031;50.974;11.330;2024-03-25T07:15:43;3.30;;;1.60;;
17814;SDS011;9031;50.974;11.330;2024-03-25T07:18:09;5.37;;;2.20;;
17814;SDS011;9031;50.974;11.330;2024-03-25T07:20:39;3.87;;;2.07;;
17814;SDS011;9031;50.974;11.330;2024-03-25T07:23:05;5.47;;;2.00;;
17814;SDS011;9031;50.974;11.330;2024-03-25T07:25:30;3.53;;;1.97;;
17814;SDS011;9031;50.974;11.330;2024-03-25T07:27:56;3.17;;;1.67;;
17814;SDS011;9031;50.974;11.330;2024-03-25T07:30:22;3.67;;;1.70;;
17814;SDS011;9031;50.974;11.330;2024-03-25T07:32:50;3.63;;;1.80;;
17814;SDS011;9031;50.974;11.330;2024-03-25T07:35:16;4.23;;;1.93;;
17814;SDS011;9031;50.974;11.330;2024-03-25T07:37:42;2.60;;;1.83;;
17814;SDS011;9031;50.974;11.330;2024-03-25T07:40:08;4.67;;;1.57;;
17814;SDS011;9031;50.974;11.330;2024-03-25T07:42:35;4.10;;;1.37;;
17814;SDS011;9031;50.974;11.330;2024-03-25T07:45:00;1.50;;;1.17;;
17814;SDS011;9031;50.974;11.330;2024-03-25T07:47:26;3.30;;;1.20;;
17814;SDS011;9031;50.974;11.330;2024-03-25T07:49:51;3.03;;;1.33;;
17814;SDS011;9031;50.974;11.330;2024-03-25T07:52:17;4.70;;;1.37;;
17814;SDS011;9031;50.974;11.330;2024-03-25T07:54:43;6.57;;;1.87;;
17814;SDS011;9031;50.974;11.330;2024-03-25T07:57:09;5.47;;;1.33;;
17814;SDS011;9031;50.974;11.330;2024-03-25T07:59:34;3.47;;;1.20;;
17814;SDS011;9031;50.974;11.330;2024-03-25T08:02:00;3.93;;;1.17;;
17814;SDS011;9031;50.974;11.330;2024-03-25T08:04:25;1.90;;;1.00;;
17814;SDS011;9031;50.974;11.330;2024-03-25T08:06:51;4.77;;;1.43;;
17814;SDS011;9031;50.974;11.330;2024-03-25T08:09:16;1.57;;;1.13;;
17814;SDS011;9031;50.974;11.330;2024-03-25T08:11:42;4.00;;;1.50;;
17814;SDS011;9031;50.974;11.330;2024-03-25T08:14:11;6.33;;;1.50;;
17814;SDS011;9031;50.974;11.330;2024-03-25T08:16:36;3.03;;;1.10;;
17814;SDS011;9031;50.974;11.330;2024-03-25T08:19:02;3.13;;;1.40;;
17814;SDS011;9031;50.974;11.330;2024-03-25T08:21:28;3.67;;;1.40;;
17814;SDS011;9031;50.974;11.330;2024-03-25T08:23:53;2.20;;;1.17;;
17814;SDS011;9031;50.974;11.330;2024-03-25T08:26:19;2.47;;;1.30;;
17814;SDS011;9031;50.974;11.330;2024-03-25T08:28:44;2.17;;;1.60;;
17814;SDS011;9031;50.974;11.330;2024-03-25T08:31:10;3.00;;;1.40;;
17814;SDS011;9031;50.974;11.330;2024-03-25T08:33:35;2.73;;;1.07;;
17814;SDS011;9031;50.974;11.330;2024-03-25T08:36:01;3.50;;;1.43;;
17814;SDS011;9031;50.974;11.330;2024-03-25T08:38:26;4.40;;;1.30;;
17814;SDS011;9031;50.974;11.330;2024-03-25T08:40:52;1.47;;;0.97;;
17814;SDS011;9031;50.974;11.330;2024-03-25T08:43:17;2.00;;;0.93;;
17814;SDS011;9031;50.974;11.330;2024-03-25T08:45:44;1.80;;;1.10;;
17814;SDS011;9031;50.974;11.330;2024-03-25T08:48:09;3.57;;;1.30;;
17814;SDS011;9031;50.974;11.330;2024-03-25T08:50:35;2.90;;;1.30;;
17814;SDS011;9031;50.974;11.330;2024-03-25T08:53:00;5.97;;;1.40;;
17814;SDS011;9031;50.974;11.330;2024-03-25T08:55:27;4.83;;;1.60;;
17814;SDS011;9031;50.974;11.330;2024-03-25T08:57:52;4.47;;;1.37;;
17814;SDS011;9031;50.974;11.330;2024-03-25T09:00:18;3.63;;;1.30;;
17814;SDS011;9031;50.974;11.330;2024-03-25T09:02:43;2.33;;;1.13;;
17814;SDS011;9031;50.974;11.330;2024-03-25T09:05:09;4.17;;;1.20;;
17814;SDS011;9031;50.974;11.330;2024-03-25T09:07:35;2.77;;;1.43;;
17814;SDS011;9031;50.974;11.330;2024-03-25T09:10:01;2.00;;;1.40;;
17814;SDS011;9031;50.974;11.330;2024-03-25T09:12:45;1.90;;;1.57;;
17814;SDS011;9031;50.974;11.330;2024-03-25T09:15:10;3.03;;;1.60;;
17814;SDS011;9031;50.974;11.330;2024-03-25T09:17:36;3.60;;;1.73;;
17814;SDS011;9031;50.974;11.330;2024-03-25T09:20:02;2.77;;;1.33;;
17814;SDS011;9031;50.974;11.330;2024-03-25T09:22:30;3.33;;;1.53;;
17814;SDS011;9031;50.974;11.330;2024-03-25T09:24:55;4.83;;;1.80;;
17814;SDS011;9031;50.974;11.330;2024-03-25T09:27:21;3.30;;;1.50;;
17814;SDS011;9031;50.974;11.330;2024-03-25T09:29:46;3.77;;;1.57;;
17814;SDS011;9031;50.974;11.330;2024-03-25T09:32:12;7.10;;;1.97;;
17814;SDS011;9031;50.974;11.330;2024-03-25T09:34:37;3.47;;;1.57;;
17814;SDS011;9031;50.974;11.330;2024-03-25T09:37:03;2.70;;;1.40;;
17814;SDS011;9031;50.974;11.330;2024-03-25T09:39:28;3.37;;;1.43;;
17814;SDS011;9031;50.974;11.330;2024-03-25T09:41:55;3.57;;;1.43;;
17814;SDS011;9031;50.974;11.330;2024-03-25T09:44:22;4.30;;;1.63;;
17814;SDS011;9031;50.974;11.330;2024-03-25T09:46:49;3.47;;;1.37;;
17814;SDS011;9031;50.974;11.330;2024-03-25T09:49:15;2.30;;;1.17;;
17814;SDS011;9031;50.974;11.330;2024-03-25T09:51:41;3.93;;;1.80;;
17814;SDS011;9031;50.974;11.330;2024-03-25T09:54:07;2.33;;;1.37;;
17814;SDS011;9031;50.974;11.330;2024-03-25T09:56:32;4.07;;;1.47;;
17814;SDS011;9031;50.974;11.330;2024-03-25T09:58:59;3.37;;;1.70;;
17814;SDS011;9031;50.974;11.330;2024-03-25T10:01:25;4.17;;;1.43;;
17814;SDS011;9031;50.974;11.330;2024-03-25T10:03:50;4.17;;;1.77;;
17814;SDS011;9031;50.974;11.330;2024-03-25T10:06:16;5.87;;;1.73;;
17814;SDS011;9031;50.974;11.330;2024-03-25T10:08:41;6.50;;;1.50;;
17814;SDS011;9031;50.974;11.330;2024-03-25T10:11:07;1.67;;;1.43;;
17814;SDS011;9031;50.974;11.330;2024-03-25T10:13:32;2.10;;;1.00;;
17814;SDS011;9031;50.974;11.330;2024-03-25T10:15:58;3.73;;;1.10;;
17814;SDS011;9031;50.974;11.330;2024-03-25T10:18:23;2.10;;;0.90;;
17814;SDS011;9031;50.974;11.330;2024-03-25T10:20:49;3.87;;;1.37;;
17814;SDS011;9031;50.974;11.330;2024-03-25T10:23:22;2.17;;;1.10;;
17814;SDS011;9031;50.974;11.330;2024-03-25T10:25:51;4.90;;;1.47;;
17814;SDS011;9031;50.974;11.330;2024-03-25T10:28:17;3.13;;;1.07;;
17814;SDS011;9031;50.974;11.330;2024-03-25T10:30:42;4.23;;;1.40;;
17814;SDS011;9031;50.974;11.330;2024-03-25T10:33:08;3.87;;;1.23;;
17814;SDS011;9031;50.974;11.330;2024-03-25T10:35:34;1.57;;;1.00;;
17814;SDS011;9031;50.974;11.330;2024-03-25T10:38:03;3.53;;;1.40;;
17814;SDS011;9031;50.974;11.330;2024-03-25T10:40:39;3.93;;;1.07;;
17814;SDS011;9031;50.974;11.330;2024-03-25T10:43:08;2.77;;;1.30;;
17814;SDS011;9031;50.974;11.330;2024-03-25T10:45:40;3.83;;;1.23;;
17814;SDS011;9031;50.974;11.330;2024-03-25T10:48:11;3.90;;;1.40;;
17814;SDS011;9031;50.974;11.330;2024-03-25T10:50:43;2.20;;;1.20;;
17814;SDS011;9031;50.974;11.330;2024-03-25T10:53:10;5.93;;;1.37;;
17814;SDS011;9031;50.974;11.330;2024-03-25T10:55:36;3.23;;;1.33;;
17814;SDS011;9031;50.974;11.330;2024-03-25T10:58:02;2.40;;;1.20;;
17814;SDS011;9031;50.974;11.330;2024-03-25T11:00:29;2.63;;;1.00;;
17814;SDS011;9031;50.974;11.330;2024-03-25T11:02:55;2.23;;;1.10;;
17814;SDS011;9031;50.974;11.330;2024-03-25T11:05:23;1.60;;;0.70;;
17814;SDS011;9031;50.974;11.330;2024-03-25T11:07:49;0.87;;;0.77;;
17814;SDS011;9031;50.974;11.330;2024-03-25T11:10:15;2.13;;;0.90;;
17814;SDS011;9031;50.974;11.330;2024-03-25T11:12:41;1.87;;;0.77;;
17814;SDS011;9031;50.974;11.330;2024-03-25T11:15:07;5.83;;;1.10;;
17814;SDS011;9031;50.974;11.330;2024-03-25T11:17:34;4.60;;;1.00;;
17814;SDS011;9031;50.974;11.330;2024-03-25T11:20:06;0.67;;;0.67;;
17814;SDS011;9031;50.974;11.330;2024-03-25T11:22:33;3.80;;;1.10;;
17814;SDS011;9031;50.974;11.330;2024-03-25T11:25:04;3.17;;;1.10;;
17814;SDS011;9031;50.974;11.330;2024-03-25T11:27:36;4.17;;;1.30;;
17814;SDS011;9031;50.974;11.330;2024-03-25T11:30:02;4.60;;;1.20;;
17814;SDS011;9031;50.974;11.330;2024-03-25T11:32:29;2.17;;;1.00;;
17814;SDS011;9031;50.974;11.330;2024-03-25T11:34:55;3.47;;;1.07;;
17814;SDS011;9031;50.974;11.330;2024-03-25T11:37:20;3.40;;;1.10;;
17814;SDS011;9031;50.974;11.330;2024-03-25T11:39:46;3.40;;;1.30;;
17814;SDS011;9031;50.974;11.330;2024-03-25T11:42:12;3.23;;;1.20;;
17814;SDS011;9031;50.974;11.330;2024-03-25T11:44:38;1.90;;;0.70;;
17814;SDS011;9031;50.974;11.330;2024-03-25T11:47:05;5.97;;;1.20;;
17814;SDS011;9031;50.974;11.330;2024-03-25T11:49:32;1.77;;;0.90;;
17814;SDS011;9031;50.974;11.330;2024-03-25T11:51:58;3.30;;;1.17;;
17814;SDS011;9031;50.974;11.330;2024-03-25T11:54:26;1.50;;;1.00;;
17814;SDS011;9031;50.974;11.330;2024-03-25T11:56:52;3.00;;;1.47;;
17814;SDS011;9031;50.974;11.330;2024-03-25T11:59:19;1.73;;;0.90;;
17814;SDS011;9031;50.974;11.330;2024-03-25T12:01:44;2.17;;;0.77;;
17814;SDS011;9031;50.974;11.330;2024-03-25T12:04:16;3.17;;;0.83;;
17814;SDS011;9031;50.974;11.330;2024-03-25T12:06:43;2.10;;;0.87;;
17814;SDS011;9031;50.974;11.330;2024-03-25T12:09:09;2.50;;;0.87;;
17814;SDS011;9031;50.974;11.330;2024-03-25T12:11:56;2.70;;;0.87;;
17814;SDS011;9031;50.974;11.330;2024-03-25T12:14:23;1.20;;;0.87;;
17814;SDS011;9031;50.974;11.330;2024-03-25T12:16:49;1.97;;;0.80;;
17814;SDS011;9031;50.974;11.330;2024-03-25T12:19:15;3.00;;;0.70;;
17814;SDS011;9031;50.974;11.330;2024-03-25T12:21:42;1.43;;;0.77;;
17814;SDS011;9031;50.974;11.330;2024-03-25T12:24:07;1.00;;;0.90;;
17814;SDS011;9031;50.974;11.330;2024-03-25T12:26:34;3.50;;;0.73;;
17814;SDS011;9031;50.974;11.330;2024-03-25T12:29:00;3.73;;;0.83;;
17814;SDS011;9031;50.974;11.330;2024-03-25T12:31:27;2.77;;;0.93;;
17814;SDS011;9031;50.974;11.330;2024-03-25T12:33:52;3.30;;;0.90;;
17814;SDS011;9031;50.974;11.330;2024-03-25T12:36:18;1.63;;;0.70;;
17814;SDS011;9031;50.974;11.330;2024-03-25T12:38:53;1.23;;;0.60;;
17814;SDS011;9031;50.974;11.330;2024-03-25T12:41:21;2.33;;;0.90;;
17814;SDS011;9031;50.974;11.330;2024-03-25T12:43:48;1.53;;;0.70;;
17814;SDS011;9031;50.974;11.330;2024-03-25T12:46:15;3.27;;;1.27;;
17814;SDS011;9031;50.974;11.330;2024-03-25T12:48:41;4.93;;;1.20;;
17814;SDS011;9031;50.974;11.330;2024-03-25T12:51:13;2.50;;;1.10;;
17814;SDS011;9031;50.974;11.330;2024-03-25T12:53:40;3.03;;;1.27;;
17814;SDS011;9031;50.974;11.330;2024-03-25T12:56:06;2.87;;;1.20;;
17814;SDS011;9031;50.974;11.330;2024-03-25T12:58:31;3.43;;;1.33;;
17814;SDS011;9031;50.974;11.330;2024-03-25T13:00:57;1.23;;;1.10;;
17814;SDS011;9031;50.974;11.330;2024-03-25T13:03:22;2.03;;;1.10;;
17814;SDS011;9031;50.974;11.330;2024-03-25T13:05:48;2.60;;;1.33;;
17814;SDS011;9031;50.974;11.330;2024-03-25T13:08:13;3.50;;;1.10;;
17814;SDS011;9031;50.974;11.330;2024-03-25T13:10:39;2.30;;;1.10;;
17814;SDS011;9031;50.974;11.330;2024-03-25T13:13:04;2.00;;;1.10;;
17814;SDS011;9031;50.974;11.330;2024-03-25T13:15:30;2.57;;;0.90;;
17814;SDS011;9031;50.974;11.330;2024-03-25T13:17:56;1.77;;;0.90;;
17814;SDS011;9031;50.974;11.330;2024-03-25T13:20:22;2.17;;;1.10;;
17814;SDS011;9031;50.974;11.330;2024-03-25T13:22:48;2.17;;;1.20;;
17814;SDS011;9031;50.974;11.330;2024-03-25T13:25:14;5.10;;;1.10;;
17814;SDS011;9031;50.974;11.330;2024-03-25T13:27:40;4.47;;;1.10;;
17814;SDS011;9031;50.974;11.330;2024-03-25T13:30:05;3.13;;;1.00;;
17814;SDS011;9031;50.974;11.330;2024-03-25T13:32:31;2.50;;;1.10;;
17814;SDS011;9031;50.974;11.330;2024-03-25T13:34:57;3.63;;;1.10;;
17814;SDS011;9031;50.974;11.330;2024-03-25T13:37:22;1.50;;;1.10;;
17814;SDS011;9031;50.974;11.330;2024-03-25T13:39:48;2.73;;;1.03;;
17814;SDS011;9031;50.974;11.330;2024-03-25T13:42:15;0.90;;;0.50;;
17814;SDS011;9031;50.974;11.330;2024-03-25T13:44:41;1.00;;;0.57;;
17814;SDS011;9031;50.974;11.330;2024-03-25T13:47:06;1.50;;;0.60;;
17814;SDS011;9031;50.974;11.330;2024-03-25T13:49:33;2.33;;;0.73;;
17814;SDS011;9031;50.974;11.330;2024-03-25T13:51:59;2.13;;;0.67;;
17814;SDS011;9031;50.974;11.330;2024-03-25T13:54:26;1.63;;;0.80;;
17814;SDS011;9031;50.974;11.330;2024-03-25T13:56:51;4.60;;;0.90;;
17814;SDS011;9031;50.974;11.330;2024-03-25T13:59:17;4.87;;;0.90;;
17814;SDS011;9031;50.974;11.330;2024-03-25T14:01:43;2.13;;;0.70;;
17814;SDS011;9031;50.974;11.330;2024-03-25T14:04:08;2.07;;;0.87;;
17814;SDS011;9031;50.974;11.330;2024-03-25T14:06:34;1.60;;;0.80;;
17814;SDS011;9031;50.974;11.330;2024-03-25T14:09:01;2.43;;;0.70;;
17814;SDS011;9031;50.974;11.330;2024-03-25T14:11:29;1.03;;;0.70;;
17814;SDS011;9031;50.974;11.330;2024-03-25T14:13:55;2.47;;;1.00;;
17814;SDS011;9031;50.974;11.330;2024-03-25T14:16:20;3.60;;;1.13;;
17814;SDS011;9031;50.974;11.330;2024-03-25T14:18:46;2.17;;;1.07;;
17814;SDS011;9031;50.974;11.330;2024-03-25T14:21:11;1.53;;;0.97;;
17814;SDS011;9031;50.974;11.330;2024-03-25T14:23:37;1.90;;;1.10;;
17814;SDS011;9031;50.974;11.330;2024-03-25T14:26:02;3.90;;;1.37;;
17814;SDS011;9031;50.974;11.330;2024-03-25T14:28:28;1.63;;;0.90;;
17814;SDS011;9031;50.974;11.330;2024-03-25T14:30:53;1.93;;;1.00;;
17814;SDS011;9031;50.974;11.330;2024-03-25T14:33:19;3.23;;;1.10;;
17814;SDS011;9031;50.974;11.330;2024-03-25T14:35:45;2.23;;;0.90;;
17814;SDS011;9031;50.974;11.330;2024-03-25T14:38:10;2.30;;;1.00;;
17814;SDS011;9031;50.974;11.330;2024-03-25T14:40:39;3.10;;;1.13;;
17814;SDS011;9031;50.974;11.330;2024-03-25T14:43:04;3.70;;;0.90;;